createdAt,value
2018-10-05T00:00:53.126Z,22.00
2018-10-05T00:04:56.191Z,21.70
2018-10-05T00:08:59.098Z,21.77
2018-10-05T00:13:01.950Z,22.57
2018-10-05T00:17:04.942Z,23.93
2018-10-05T00:21:07.792Z,22.90
2018-10-05T00:25:10.694Z,24.70
2018-10-05T00:29:13.546Z,21.50
2018-10-05T00:33:16.667Z,22.60
2018-10-05T00:37:19.555Z,22.03
2018-10-05T00:41:22.448Z,22.50
2018-10-05T00:45:25.639Z,23.97
2018-10-05T00:49:28.644Z,23.30
2018-10-05T00:53:31.570Z,23.37
2018-10-05T00:57:34.395Z,24.53
2018-10-05T01:01:37.278Z,26.30
2018-10-05T01:05:40.186Z,23.93
2018-10-05T01:09:43.040Z,23.10
2018-10-05T01:13:45.990Z,23.07
2018-10-05T01:17:48.915Z,25.07
2018-10-05T01:21:51.814Z,25.20
2018-10-05T01:25:54.666Z,23.00
2018-10-05T01:29:57.915Z,24.00
2018-10-05T01:34:00.759Z,25.50
2018-10-05T01:38:03.651Z,23.43
2018-10-05T01:42:06.714Z,24.93
2018-10-05T01:46:09.767Z,25.43
2018-10-05T01:50:12.623Z,23.47
2018-10-05T01:54:15.544Z,24.33
2018-10-05T01:58:18.414Z,23.90
2018-10-05T02:02:21.325Z,24.47
2018-10-05T02:06:24.299Z,26.63
2018-10-05T02:10:27.527Z,23.17
2018-10-05T02:14:30.462Z,23.60
2018-10-05T02:18:33.399Z,24.70
2018-10-05T02:22:36.471Z,24.33
2018-10-05T02:26:39.387Z,23.57
2018-10-05T02:30:42.247Z,24.20
2018-10-05T02:34:45.165Z,23.57
2018-10-05T02:38:48.019Z,27.10
2018-10-05T02:42:50.926Z,24.20
2018-10-05T02:46:54.194Z,23.37
2018-10-05T02:50:57.295Z,24.50
2018-10-05T02:55:00.146Z,24.00
2018-10-05T02:59:03.055Z,22.53
2018-10-05T03:03:06.199Z,22.27
2018-10-05T03:07:09.113Z,22.60
2018-10-05T03:11:12.274Z,21.80
2018-10-05T03:15:15.193Z,24.73
2018-10-05T03:19:18.042Z,23.30
2018-10-05T03:23:20.954Z,21.90
2018-10-05T03:27:23.803Z,24.47
2018-10-05T03:31:26.908Z,25.73
2018-10-05T03:35:29.746Z,24.40
2018-10-05T03:39:32.654Z,24.77
2018-10-05T03:43:35.723Z,23.27
2018-10-05T03:47:38.739Z,23.60
2018-10-05T03:51:41.582Z,21.73
2018-10-05T03:55:44.478Z,23.37
2018-10-05T03:59:47.331Z,22.43
2018-10-05T04:03:50.431Z,23.33
2018-10-05T04:07:53.278Z,23.23
2018-10-05T04:11:56.193Z,22.10
2018-10-05T04:15:59.035Z,24.17
2018-10-05T04:20:01.933Z,22.83
2018-10-05T04:24:04.851Z,25.37
2018-10-05T04:28:07.762Z,22.07
2018-10-05T04:32:10.610Z,22.77
2018-10-05T04:36:13.505Z,22.33
2018-10-05T04:40:16.568Z,21.80
2018-10-05T04:44:19.466Z,22.40
2018-10-05T04:48:22.701Z,22.13
2018-10-05T04:52:25.636Z,21.50
2018-10-05T04:56:28.704Z,21.60
2018-10-05T05:00:31.610Z,21.70
2018-10-05T05:04:34.462Z,23.67
2018-10-05T05:08:37.571Z,22.33
2018-10-05T05:12:40.418Z,22.43
2018-10-05T05:16:43.333Z,20.83
2018-10-05T05:20:46.189Z,23.40
2018-10-05T05:24:49.074Z,21.20
2018-10-05T05:28:52.143Z,20.83
2018-10-05T05:32:55.102Z,20.53
2018-10-05T05:36:57.955Z,20.43
2018-10-05T05:41:01.066Z,20.50
2018-10-05T05:45:03.915Z,20.43
2018-10-05T05:49:07.200Z,19.40
2018-10-05T05:53:10.107Z,21.60
2018-10-05T05:57:12.942Z,18.90
2018-10-05T06:01:16.076Z,18.30
2018-10-05T06:05:18.890Z,17.20
2018-10-05T06:09:21.750Z,18.37
2018-10-05T06:13:24.647Z,18.00
2018-10-05T06:17:27.495Z,18.50
2018-10-05T06:21:30.620Z,16.23
2018-10-05T06:25:33.510Z,15.13
2018-10-05T06:29:36.616Z,16.77
2018-10-05T06:33:39.677Z,15.40
2018-10-05T06:37:42.623Z,15.50
2018-10-05T06:41:45.696Z,15.80
2018-10-05T06:45:48.603Z,16.20
2018-10-05T06:49:51.679Z,15.50
2018-10-05T06:53:54.807Z,14.17
2018-10-05T06:57:57.807Z,12.83
2018-10-05T07:02:00.770Z,13.97
2018-10-05T07:06:03.563Z,13.90
2018-10-05T07:10:06.458Z,14.00
2018-10-05T07:14:09.387Z,15.50
2018-10-05T07:18:12.290Z,13.87
2018-10-05T07:22:15.381Z,15.03
2018-10-05T07:26:18.262Z,16.27
2018-10-05T07:30:21.383Z,13.47
2018-10-05T07:34:24.503Z,13.80
2018-10-05T07:38:27.376Z,14.27
2018-10-05T07:42:30.275Z,15.03
2018-10-05T07:46:33.226Z,12.63
2018-10-05T07:50:36.296Z,14.73
2018-10-05T07:54:39.155Z,13.33
2018-10-05T07:58:42.174Z,13.40
2018-10-05T08:02:45.247Z,13.63
2018-10-05T08:06:48.164Z,12.90
2018-10-05T08:10:51.010Z,13.53
2018-10-05T08:14:53.907Z,12.97
2018-10-05T08:18:56.874Z,12.83
2018-10-05T08:22:59.992Z,13.73
2018-10-05T08:27:03.010Z,13.97
2018-10-05T08:31:05.903Z,11.30
2018-10-05T08:35:08.978Z,13.83
2018-10-05T08:39:12.554Z,12.47
2018-10-05T08:43:15.653Z,13.10
2018-10-05T08:47:18.547Z,11.60
2018-10-05T08:51:21.735Z,12.37
2018-10-05T08:55:24.634Z,13.00
2018-10-05T08:59:27.490Z,12.07
2018-10-05T09:03:30.616Z,13.10
2018-10-05T09:07:33.679Z,12.33
2018-10-05T09:11:36.732Z,11.70
2018-10-05T09:15:39.604Z,11.40
2018-10-05T09:19:42.703Z,12.23
2018-10-05T09:23:45.563Z,13.17
2018-10-05T09:27:48.470Z,11.83
2018-10-05T09:31:51.544Z,11.83
2018-10-05T09:35:54.611Z,11.10
2018-10-05T09:39:57.450Z,12.30
2018-10-05T09:44:00.579Z,12.10
2018-10-05T09:48:03.708Z,11.63
2018-10-05T09:52:06.632Z,15.90
2018-10-05T09:56:09.466Z,11.97
2018-10-05T10:00:18.385Z,12.17
2018-10-05T10:04:21.305Z,11.43
2018-10-05T10:08:24.278Z,12.00
2018-10-05T10:12:27.142Z,10.87
2018-10-05T10:16:30.078Z,11.03
2018-10-05T10:20:32.998Z,12.53
2018-10-05T10:24:36.107Z,11.50
2018-10-05T10:28:39.055Z,11.47
2018-10-05T10:32:41.851Z,11.80
2018-10-05T10:36:44.906Z,11.40
2018-10-05T10:40:47.758Z,11.50
2018-10-05T10:44:50.823Z,11.80
2018-10-05T10:48:53.751Z,11.57
2018-10-05T10:52:56.830Z,11.87
2018-10-05T10:56:59.904Z,13.20
2018-10-05T11:01:02.828Z,12.30
2018-10-05T11:05:05.980Z,12.63
2018-10-05T11:09:08.839Z,13.63
2018-10-05T11:13:11.791Z,12.23
2018-10-05T11:17:14.638Z,14.43
2018-10-05T11:21:17.591Z,12.57
2018-10-05T11:25:20.522Z,13.80
2018-10-05T11:29:23.454Z,13.40
2018-10-05T11:33:26.513Z,11.80
2018-10-05T11:37:29.811Z,12.83
2018-10-05T11:41:32.674Z,13.30
2018-10-05T11:45:35.958Z,13.30
2018-10-05T11:49:38.807Z,12.97
2018-10-05T11:53:41.787Z,13.00
2018-10-05T11:57:44.715Z,13.83
2018-10-05T12:01:47.866Z,13.77
2018-10-05T12:05:50.723Z,12.30
2018-10-05T12:09:53.709Z,11.20
2018-10-05T12:13:56.768Z,11.30
2018-10-05T12:17:59.655Z,10.43
2018-10-05T12:22:02.503Z,10.10
2018-10-05T12:26:05.386Z,10.57
2018-10-05T12:30:08.277Z,11.20
2018-10-05T12:34:11.123Z,8.93
2018-10-05T12:38:14.287Z,10.50
2018-10-05T12:42:17.314Z,10.20
2018-10-05T12:46:20.159Z,8.67
2018-10-05T12:50:23.150Z,11.03
2018-10-05T12:54:26.235Z,9.10
2018-10-05T12:58:29.123Z,8.20
2018-10-05T13:02:31.982Z,7.53
2018-10-05T13:06:35.095Z,6.87
2018-10-05T13:10:37.943Z,6.93
2018-10-05T13:14:40.858Z,8.60
2018-10-05T13:18:43.915Z,8.00
2018-10-05T13:22:46.918Z,9.17
2018-10-05T13:26:50.035Z,9.87
2018-10-05T13:30:52.980Z,8.80
2018-10-05T13:34:56.024Z,7.07
2018-10-05T13:38:59.194Z,8.07
2018-10-05T13:43:02.282Z,11.40
2018-10-05T13:47:05.182Z,8.00
2018-10-05T13:51:08.043Z,5.83
2018-10-05T13:55:11.215Z,6.93
2018-10-05T13:59:14.063Z,7.87
2018-10-05T14:03:17.183Z,7.60
2018-10-05T14:07:20.353Z,8.40
2018-10-05T14:11:23.243Z,8.50
2018-10-05T14:15:26.082Z,9.10
2018-10-05T14:19:28.986Z,8.43
2018-10-05T14:23:32.040Z,7.77
2018-10-05T14:27:35.034Z,7.57
2018-10-05T14:31:37.877Z,8.93
2018-10-05T14:35:40.967Z,7.93
2018-10-05T14:39:43.971Z,7.70
2018-10-05T14:43:46.859Z,7.43
2018-10-05T14:47:49.912Z,8.13
2018-10-05T14:51:52.901Z,7.50
2018-10-05T14:55:55.739Z,7.83
2018-10-05T14:59:58.630Z,6.67
2018-10-05T15:04:01.479Z,7.80
2018-10-05T15:08:04.655Z,7.20
2018-10-05T15:12:07.508Z,7.97
2018-10-05T15:16:10.782Z,6.87
2018-10-05T15:20:13.566Z,6.93
2018-10-05T15:24:16.476Z,7.30
2018-10-05T15:28:19.520Z,7.30
2018-10-05T15:32:22.511Z,7.07
2018-10-05T15:36:25.442Z,7.67
2018-10-05T15:40:28.462Z,6.70
2018-10-05T15:44:31.306Z,8.33
2018-10-05T15:48:34.522Z,7.10
2018-10-05T15:52:37.367Z,7.80
2018-10-05T15:56:40.467Z,8.60
2018-10-05T16:00:43.314Z,8.37
2018-10-05T16:04:46.230Z,7.73
2018-10-05T16:08:49.280Z,7.93
2018-10-05T16:12:52.194Z,7.03
2018-10-05T16:16:55.068Z,7.63
2018-10-05T16:20:57.975Z,8.60
2018-10-05T16:25:00.823Z,7.10
2018-10-05T16:29:03.953Z,6.60
2018-10-05T16:33:06.818Z,7.60
2018-10-05T16:37:09.726Z,6.93
2018-10-05T16:41:13.031Z,7.70
2018-10-05T16:45:15.927Z,7.40
2018-10-05T16:49:19.679Z,8.60
2018-10-05T16:53:22.589Z,8.40
2018-10-05T16:57:25.702Z,7.30
2018-10-05T17:01:28.558Z,7.90
2018-10-05T17:05:31.526Z,9.10
2018-10-05T17:09:34.636Z,8.97
2018-10-05T17:13:37.767Z,9.77
2018-10-05T17:17:40.678Z,10.10
2018-10-05T17:21:43.549Z,9.43
2018-10-05T17:25:46.675Z,8.90
2018-10-05T17:29:49.546Z,11.50
2018-10-05T17:33:52.556Z,10.00
2018-10-05T17:37:55.871Z,8.60
2018-10-05T17:41:58.682Z,11.17
2018-10-05T17:46:01.591Z,9.13
2018-10-05T17:50:04.731Z,13.00
2018-10-05T17:54:07.851Z,14.27
2018-10-05T17:58:10.715Z,12.57
2018-10-05T18:02:13.831Z,11.50
2018-10-05T18:06:16.898Z,12.57
2018-10-05T18:10:19.803Z,13.97
2018-10-05T18:14:22.654Z,12.43
2018-10-05T18:18:25.775Z,11.10
2018-10-05T18:22:28.623Z,12.43
2018-10-05T18:26:31.955Z,12.40
2018-10-05T18:30:35.039Z,11.27
2018-10-05T18:34:38.102Z,11.60
2018-10-05T18:38:40.962Z,11.80
2018-10-05T18:42:44.251Z,11.30
2018-10-05T18:46:47.211Z,11.40
2018-10-05T18:50:50.390Z,10.10
2018-10-05T18:54:53.399Z,11.30
2018-10-05T18:58:56.492Z,12.37
2018-10-05T19:02:59.597Z,11.17
2018-10-05T19:07:02.620Z,11.37
2018-10-05T19:11:05.636Z,11.23
2018-10-05T19:15:08.526Z,12.70
2018-10-05T19:19:11.611Z,9.00
2018-10-05T19:23:14.467Z,10.30
2018-10-05T19:27:17.859Z,10.90
2018-10-05T19:31:20.795Z,12.43
2018-10-05T19:35:23.710Z,13.53
2018-10-05T19:39:26.819Z,10.37
2018-10-05T19:43:29.823Z,12.03
2018-10-05T19:47:32.687Z,12.37
2018-10-05T19:51:36.455Z,11.00
2018-10-05T19:55:43.744Z,11.73
2018-10-05T19:59:46.633Z,13.00
2018-10-05T20:03:49.486Z,11.97
2018-10-05T20:07:52.407Z,12.13
2018-10-05T20:11:55.254Z,11.90
2018-10-05T20:15:58.399Z,9.87
2018-10-05T20:20:01.287Z,11.37
2018-10-05T20:24:04.395Z,12.33
2018-10-05T20:28:07.611Z,10.40
2018-10-05T20:32:10.502Z,9.43
2018-10-05T20:36:13.561Z,9.87
2018-10-05T20:40:16.319Z,9.17
2018-10-05T20:44:19.377Z,8.97
2018-10-05T20:48:22.282Z,7.83
2018-10-05T20:52:25.116Z,9.27
2018-10-05T20:56:28.011Z,9.43
2018-10-05T21:00:30.846Z,7.10
2018-10-05T21:04:33.758Z,5.37
2018-10-05T21:08:36.807Z,4.77
2018-10-05T21:12:39.778Z,4.73
2018-10-05T21:16:42.623Z,5.37
2018-10-05T21:20:45.730Z,7.07
2018-10-05T21:24:48.582Z,9.40
2018-10-05T21:28:51.590Z,8.90
2018-10-05T21:32:54.492Z,10.07
2018-10-05T21:36:57.574Z,9.60
2018-10-05T21:41:00.415Z,8.90
2018-10-05T21:45:03.347Z,9.60
2018-10-05T21:49:06.649Z,9.17
2018-10-05T21:53:09.547Z,8.30
2018-10-05T21:57:12.406Z,8.60
2018-10-05T22:01:15.308Z,9.30
2018-10-05T22:05:18.250Z,10.20
2018-10-05T22:09:21.147Z,9.83
2018-10-05T22:13:24.198Z,9.23
2018-10-05T22:17:27.351Z,8.73
2018-10-05T22:21:30.199Z,11.23
2018-10-05T22:25:33.123Z,9.80
2018-10-05T22:29:36.292Z,7.73
2018-10-05T22:33:39.199Z,6.80
2018-10-05T22:37:42.053Z,6.20
2018-10-05T22:41:45.351Z,5.70
2018-10-05T22:45:48.194Z,5.33
2018-10-05T22:49:51.106Z,5.60
2018-10-05T22:53:53.955Z,5.23
2018-10-05T22:57:57.019Z,5.10
2018-10-05T23:01:59.895Z,4.20
2018-10-05T23:06:02.910Z,5.43
2018-10-05T23:10:05.808Z,4.80
2018-10-05T23:14:08.718Z,5.03
2018-10-05T23:18:11.577Z,5.13
2018-10-05T23:22:14.835Z,6.30
2018-10-05T23:26:17.680Z,6.30
2018-10-05T23:30:20.579Z,7.83
2018-10-05T23:34:23.431Z,7.23
2018-10-05T23:38:26.492Z,5.90
2018-10-05T23:42:29.339Z,5.63
2018-10-05T23:46:32.282Z,6.20
2018-10-05T23:50:35.254Z,5.83
2018-10-05T23:54:38.343Z,5.10
2018-10-05T23:58:41.550Z,6.63
